Time;durP1;ratioP1;P1;durP2;ratioP2;P2;SDS_P1;SDS_P2;PMS_P1;PMS_P2;Temp;Humidity;BMP_temperature;BMP_pressure;BME280_temperature;BME280_humidity;BME280_pressure;Samples;Min_cycle;Max_cycle;Signal;HPM_P1;HPM_P2
2023/03/24 00:00:44;;;;;;;4.30;2.45;;;;;;;12.69;61.56;98732.91;10395682;28;20041;-62
2023/03/24 00:05:49;;;;;;;5.60;2.90;;;;;;;12.70;61.67;98733.75;10394536;28;20179;-62
2023/03/24 00:10:52;;;;;;;4.55;2.40;;;;;;;12.68;61.82;98722.56;10386532;28;20556;-61
2023/03/24 00:15:53;;;;;;;4.68;2.58;;;;;;;12.51;61.94;98726.63;10393474;28;20402;-62
2023/03/24 00:20:57;;;;;;;5.20;2.72;;;;;;;12.53;62.16;98721.25;10394292;28;20132;-61
2023/03/24 00:26:07;;;;;;;5.50;2.70;;;;;;;12.44;62.51;98722.88;10375864;28;20426;-62
2023/03/24 00:31:09;;;;;;;6.43;2.58;;;;;;;12.39;62.16;98717.22;10394468;28;20140;-61
2023/03/24 00:36:11;;;;;;;4.57;2.60;;;;;;;12.35;62.72;98710.56;10393966;28;20453;-61
2023/03/24 00:41:13;;;;;;;5.90;2.63;;;;;;;12.35;62.32;98705.34;10391484;28;20392;-61
2023/03/24 00:46:27;;;;;;;5.70;2.80;;;;;;;12.26;62.32;98697.38;10392327;28;20386;-61
2023/03/24 00:51:32;;;;;;;5.05;2.70;;;;;;;12.19;62.53;98699.72;10392773;28;20048;-61
2023/03/24 00:56:36;;;;;;;5.22;2.50;;;;;;;12.15;62.74;98688.63;10394761;28;20049;-62
2023/03/24 01:01:39;;;;;;;3.88;2.40;;;;;;;12.13;62.64;98679.25;10395490;28;20057;-62
2023/03/24 01:06:43;;;;;;;5.55;2.60;;;;;;;12.19;62.59;98670.88;10391898;28;20045;-61
2023/03/24 01:11:45;;;;;;;5.30;2.53;;;;;;;12.16;62.52;98660.66;10394263;28;20068;-61
2023/03/24 01:16:46;;;;;;;4.53;2.60;;;;;;;12.12;62.51;98659.25;10392976;28;20041;-62
2023/03/24 01:21:49;;;;;;;4.28;2.75;;;;;;;12.10;62.72;98653.31;10393992;28;20060;-61
2023/03/24 01:26:51;;;;;;;4.20;2.67;;;;;;;12.12;62.90;98648.78;10390085;28;20478;-61
2023/03/24 01:31:53;;;;;;;4.72;2.95;;;;;;;12.23;62.87;98651.31;10391859;28;20037;-61
2023/03/24 01:36:54;;;;;;;5.15;2.70;;;;;;;12.21;62.89;98640.13;10374379;28;20807;-61
2023/03/24 01:41:56;;;;;;;5.03;2.88;;;;;;;12.26;62.92;98639.69;10373588;28;20051;-61
2023/03/24 01:46:59;;;;;;;5.65;2.70;;;;;;;12.33;62.59;98627.78;10393687;28;20045;-61
2023/03/24 01:52:05;;;;;;;6.70;2.92;;;;;;;12.29;62.51;98621.97;10392479;28;20049;-62
2023/03/24 01:57:11;;;;;;;5.30;3.13;;;;;;;12.14;63.16;98610.16;10392754;28;20037;-61
2023/03/24 02:02:14;;;;;;;7.72;3.75;;;;;;;12.06;63.15;98607.38;10391435;28;20060;-62
2023/03/24 02:07:33;;;;;;;5.45;2.88;;;;;;;11.98;63.52;98599.34;10392414;28;20054;-61
2023/03/24 02:12:36;;;;;;;6.28;3.70;;;;;;;12.05;63.22;98587.34;10393378;28;20047;-62
2023/03/24 02:17:58;;;;;;;6.00;4.40;;;;;;;12.02;62.97;98564.88;10396059;28;20045;-62
2023/03/24 02:23:22;;;;;;;6.00;4.20;;;;;;;12.16;62.16;98558.44;10385157;28;20645;-62
2023/03/24 02:28:36;;;;;;;7.38;4.35;;;;;;;12.23;62.35;98543.84;10389366;28;20076;-62
2023/03/24 02:33:50;;;;;;;6.93;4.60;;;;;;;12.29;61.88;98538.09;10387630;28;20436;-61
2023/03/24 02:38:59;;;;;;;8.98;4.80;;;;;;;12.40;61.52;98524.84;10393566;28;20060;-62
2023/03/24 02:44:17;;;;;;;6.85;4.22;;;;;;;12.36;61.56;98512.97;10389434;28;20062;-61
2023/03/24 02:49:52;;;;;;;7.18;4.70;;;;;;;12.34;61.64;98509.66;10386885;28;20057;-61
2023/03/24 02:55:07;;;;;;;6.10;4.15;;;;;;;12.48;61.17;98514.47;10387279;28;20060;-62
2023/03/24 03:00:17;;;;;;;6.43;4.22;;;;;;;12.56;60.83;98504.13;10388718;28;20053;-62
2023/03/24 03:05:28;;;;;;;8.70;4.57;;;;;;;12.63;60.85;98502.63;10397847;28;20044;-61
2023/03/24 03:10:36;;;;;;;6.55;4.15;;;;;;;12.70;60.64;98503.72;10393232;28;20489;-62
2023/03/24 03:15:44;;;;;;;8.55;4.18;;;;;;;12.75;60.68;98498.88;10395868;28;20038;-61
2023/03/24 03:20:51;;;;;;;5.80;4.13;;;;;;;12.76;60.29;98489.22;10391455;28;20061;-62
2023/03/24 03:26:04;;;;;;;6.78;4.13;;;;;;;12.77;60.30;98489.09;10394802;28;20401;-61
2023/03/24 03:31:13;;;;;;;6.97;4.28;;;;;;;12.74;60.25;98499.03;10396210;28;20049;-61
2023/03/24 03:36:23;;;;;;;6.07;4.05;;;;;;;12.82;60.22;98491.28;10393320;28;20048;-61
2023/03/24 03:41:25;;;;;;;8.48;4.38;;;;;;;12.81;60.21;98508.81;10395575;28;20054;-61
2023/03/24 03:46:28;;;;;;;7.75;4.35;;;;;;;12.84;60.26;98492.78;10399179;28;20045;-61
2023/03/24 03:51:32;;;;;;;7.47;5.03;;;;;;;12.92;59.99;98498.16;10400545;28;20057;-62
2023/03/24 03:56:36;;;;;;;7.38;4.60;;;;;;;12.92;60.03;98481.59;10396420;28;20042;-61
2023/03/24 04:01:40;;;;;;;7.97;5.00;;;;;;;12.93;60.32;98481.44;10400529;28;20045;-61
2023/03/24 04:07:39;;;;;;;9.50;5.38;;;;;;;12.77;60.68;98468.09;10397120;28;20499;-61
2023/03/24 04:12:58;;;;;;;7.63;4.60;;;;;;;12.76;60.76;98448.06;10189928;29;20573;-61
2023/03/24 04:18:05;;;;;;;6.93;4.50;;;;;;;12.74;61.05;98421.13;10362374;28;20068;-62
2023/03/24 04:23:27;;;;;;;8.95;4.28;;;;;;;12.52;62.42;98447.69;10393318;28;20413;-62
2023/03/24 04:28:40;;;;;;;6.57;4.13;;;;;;;12.58;62.29;98447.13;10380196;28;20490;-61
2023/03/24 04:34:02;;;;;;;5.18;3.80;;;;;;;12.57;62.41;98450.72;10390507;28;20582;-62
2023/03/24 04:39:04;;;;;;;6.07;4.30;;;;;;;12.73;62.08;98477.22;10392779;28;20656;-62
2023/03/24 04:44:06;;;;;;;7.43;4.05;;;;;;;12.81;61.86;98471.25;10389992;28;20052;-61
2023/03/24 04:49:08;;;;;;;7.60;4.28;;;;;;;12.79;61.74;98474.03;10392856;28;20116;-61
2023/03/24 04:54:10;;;;;;;6.10;3.70;;;;;;;12.78;62.02;98485.47;10394030;28;20053;-61
2023/03/24 04:59:14;;;;;;;5.60;3.50;;;;;;;12.81;61.92;98487.84;10389286;28;20052;-61
2023/03/24 05:04:21;;;;;;;5.55;3.75;;;;;;;12.81;61.74;98493.09;10392241;28;20049;-61
2023/03/24 05:09:24;;;;;;;5.22;3.13;;;;;;;12.86;61.47;98501.34;10391652;28;20080;-61
2023/03/24 05:14:26;;;;;;;3.83;2.70;;;;;;;12.83;61.76;98509.50;10395077;28;20049;-61
2023/03/24 05:19:28;;;;;;;4.80;2.53;;;;;;;12.95;61.46;98497.88;10389152;28;20057;-61
2023/03/24 05:24:30;;;;;;;3.20;2.10;;;;;;;12.98;61.16;98486.28;10391532;28;20040;-61
2023/03/24 05:29:32;;;;;;;4.03;2.20;;;;;;;12.94;61.06;98493.59;10392210;28;20046;-62
2023/03/24 05:34:34;;;;;;;3.35;2.08;;;;;;;12.92;61.11;98492.91;10389360;28;20564;-61
2023/03/24 05:39:36;;;;;;;3.75;1.77;;;;;;;12.82;61.04;98491.28;10388226;28;20699;-61
2023/03/24 05:44:37;;;;;;;5.28;2.90;;;;;;;12.91;61.06;98488.63;10394204;28;20041;-61
2023/03/24 05:49:39;;;;;;;4.60;2.50;;;;;;;12.91;60.50;98496.50;10388668;28;20413;-61
2023/03/24 05:54:41;;;;;;;4.32;2.42;;;;;;;12.96;60.86;98493.47;10390283;28;20045;-60
2023/03/24 05:59:43;;;;;;;2.97;1.92;;;;;;;13.06;60.43;98511.81;10390357;28;20045;-61
2023/03/24 06:04:47;;;;;;;3.10;1.70;;;;;;;13.11;60.21;98499.09;10391367;28;20049;-61
2023/03/24 06:09:51;;;;;;;3.05;1.75;;;;;;;13.29;59.63;98490.31;10388907;28;20045;-61
2023/03/24 06:14:53;;;;;;;3.53;1.75;;;;;;;13.19;59.66;98509.72;10391915;28;20372;-63
2023/03/24 06:20:01;;;;;;;2.83;1.88;;;;;;;13.30;59.24;98513.00;10379220;28;20815;-61
2023/03/24 06:25:03;;;;;;;3.22;1.80;;;;;;;13.37;58.96;98513.25;10385792;28;20500;-62
2023/03/24 06:30:07;;;;;;;3.97;1.65;;;;;;;13.44;58.80;98530.94;10388041;28;20079;-61
2023/03/24 06:35:09;;;;;;;4.25;1.70;;;;;;;13.41;58.96;98546.13;10387569;28;20049;-62
2023/03/24 06:40:14;;;;;;;7.43;4.60;;;;;;;13.59;58.36;98568.94;10386374;28;20137;-61
2023/03/24 06:45:16;;;;;;;3.95;1.63;;;;;;;13.63;58.07;98561.59;10402719;28;20572;-62
2023/03/24 06:50:19;;;;;;;3.10;1.60;;;;;;;13.60;57.75;98560.06;10384745;28;20404;-62
2023/03/24 06:55:21;;;;;;;2.30;1.40;;;;;;;13.76;57.74;98569.94;10389015;28;20053;-61
2023/03/24 07:00:24;;;;;;;3.83;1.40;;;;;;;13.77;57.54;98556.69;10386071;28;20049;-61
2023/03/24 07:05:26;;;;;;;4.25;1.40;;;;;;;13.73;57.38;98570.25;10386820;28;20520;-62
2023/03/24 07:10:28;;;;;;;3.58;1.50;;;;;;;13.97;57.10;98569.72;10384192;28;20041;-62
2023/03/24 07:15:30;;;;;;;5.90;1.60;;;;;;;14.11;56.56;98591.09;10390248;28;20506;-62
2023/03/24 07:20:32;;;;;;;2.83;1.55;;;;;;;14.11;56.70;98598.16;10389336;28;20370;-62
2023/03/24 07:25:33;;;;;;;3.22;1.50;;;;;;;14.06;56.57;98595.97;10395219;28;20060;-61
2023/03/24 07:30:35;;;;;;;2.05;1.40;;;;;;;14.08;56.39;98619.50;10390479;28;20041;-62
2023/03/24 07:35:41;;;;;;;2.45;1.38;;;;;;;14.09;56.25;98621.97;10395983;28;20103;-62
2023/03/24 07:40:44;;;;;;;2.50;1.40;;;;;;;14.27;55.89;98614.97;10396573;28;20049;-68
2023/03/24 07:45:45;;;;;;;2.25;1.40;;;;;;;14.47;55.34;98607.81;10393790;28;20099;-68
2023/03/24 07:50:48;;;;;;;2.17;1.27;;;;;;;14.59;55.08;98604.81;10417888;28;20803;-68
2023/03/24 07:55:50;;;;;;;2.80;1.40;;;;;;;14.91;54.34;98600.84;10399633;28;20115;-67
2023/03/24 08:00:52;;;;;;;3.22;1.30;;;;;;;15.13;53.55;98601.22;10409521;28;20056;-68
2023/03/24 08:05:54;;;;;;;2.90;1.20;;;;;;;15.20;53.43;98609.34;10391922;28;20046;-68
2023/03/24 08:10:56;;;;;;;1.77;1.17;;;;;;;14.96;53.66;98623.09;10389123;28;20052;-68
2023/03/24 08:15:57;;;;;;;4.05;1.10;;;;;;;14.34;52.83;98660.75;10432122;28;20556;-68
2023/03/24 08:21:01;;;;;;;2.67;1.20;;;;;;;13.56;53.95;98708.41;10434173;28;20088;-68
2023/03/24 08:26:02;;;;;;;3.30;1.40;;;;;;;13.07;54.60;98718.22;10391061;28;20391;-67
2023/03/24 08:31:04;;;;;;;8.15;1.83;;;;;;;12.47;55.44;98727.88;10389814;28;20056;-68
2023/03/24 08:36:07;;;;;;;6.65;1.70;;;;;;;11.93;56.90;98727.28;10432002;28;20056;-68
2023/03/24 08:41:08;;;;;;;7.07;1.70;;;;;;;11.45;58.25;98737.44;10397078;28;20053;-67
2023/03/24 08:46:10;;;;;;;9.38;1.92;;;;;;;11.43;59.46;98744.59;10430943;28;20041;-68
2023/03/24 08:51:16;;;;;;;6.32;1.85;;;;;;;11.13;60.24;98742.66;10396638;28;20497;-68
2023/03/24 08:56:19;;;;;;;9.32;1.92;;;;;;;11.06;61.02;98745.91;10390079;28;20049;-68
2023/03/24 09:01:21;;;;;;;11.38;2.30;;;;;;;11.23;60.89;98730.50;10394439;28;20042;-68
2023/03/24 09:06:23;;;;;;;7.13;1.77;;;;;;;11.41;61.47;98745.66;10388370;28;20134;-68
2023/03/24 09:11:25;;;;;;;8.73;2.20;;;;;;;11.49;61.79;98744.09;10394906;28;20060;-67
2023/03/24 09:16:27;;;;;;;8.23;1.95;;;;;;;11.62;62.06;98738.66;10388049;28;20060;-68
2023/03/24 09:21:28;;;;;;;7.88;1.95;;;;;;;11.76;62.39;98747.06;10388747;28;20053;-68
2023/03/24 09:26:32;;;;;;;7.72;1.90;;;;;;;11.81;62.40;98757.97;10429668;28;20088;-68
2023/03/24 09:31:34;;;;;;;7.45;1.90;;;;;;;11.82;62.40;98771.91;10393872;28;20050;-68
2023/03/24 09:36:36;;;;;;;7.50;1.90;;;;;;;11.82;61.86;98761.41;10417055;28;20518;-68
2023/03/24 09:41:37;;;;;;;7.63;2.22;;;;;;;11.87;61.86;98765.31;10387925;28;20528;-68
2023/03/24 09:46:49;;;;;;;7.07;2.00;;;;;;;12.03;61.88;98760.44;10388342;28;20053;-67
2023/03/24 09:51:56;;;;;;;4.95;1.83;;;;;;;12.05;62.19;98778.66;10388306;28;20501;-68
2023/03/24 09:56:58;;;;;;;7.28;1.80;;;;;;;11.99;61.98;98777.38;10390385;28;20583;-68
2023/03/24 10:02:01;;;;;;;5.82;1.95;;;;;;;12.00;61.76;98778.22;10387956;28;20057;-68
2023/03/24 10:07:11;;;;;;;8.65;2.10;;;;;;;11.89;62.01;98783.50;10386558;28;20049;-68
2023/03/24 10:12:35;;;;;;;4.78;1.73;;;;;;;12.00;62.15;98783.47;10405509;28;20140;-68
2023/03/24 10:18:01;;;;;;;6.13;1.58;;;;;;;12.15;61.86;98784.78;10384671;28;20135;-68
2023/03/24 10:23:31;;;;;;;7.82;2.55;;;;;;;12.53;61.20;98778.94;10405636;28;20045;-68
2023/03/24 10:28:53;;;;;;;8.30;2.05;;;;;;;12.83;59.72;98768.41;10383800;28;20726;-68
2023/03/24 10:33:56;;;;;;;7.90;2.00;;;;;;;13.07;59.50;98795.13;10385838;28;20574;-68
2023/03/24 10:38:58;;;;;;;6.70;2.00;;;;;;;13.47;58.46;98787.22;10383232;28;20050;-68
2023/03/24 10:44:14;;;;;;;5.47;1.70;;;;;;;13.86;57.44;98775.72;10383449;28;20051;-68
2023/03/24 10:49:20;;;;;;;5.93;1.95;;;;;;;13.62;57.18;98780.59;10403200;28;20219;-68
2023/03/24 10:54:24;;;;;;;6.40;1.90;;;;;;;13.90;56.22;98794.69;10394576;28;20486;-68
2023/03/24 10:59:31;;;;;;;7.15;1.58;;;;;;;14.01;55.27;98803.25;10381611;28;20053;-68
2023/03/24 11:04:39;;;;;;;5.75;1.80;;;;;;;14.09;55.66;98811.25;10384067;28;20050;-67
2023/03/24 11:09:44;;;;;;;6.13;1.85;;;;;;;14.19;54.58;98817.34;10397450;28;20413;-68
2023/03/24 11:14:45;;;;;;;6.75;1.80;;;;;;;13.91;54.13;98818.19;10390742;28;20048;-68
2023/03/24 11:19:55;;;;;;;7.68;1.83;;;;;;;14.08;53.39;98799.09;10388869;28;20057;-68
2023/03/24 11:24:58;;;;;;;8.02;1.55;;;;;;;14.32;53.33;98798.63;10383404;28;20045;-68
2023/03/24 11:29:59;;;;;;;4.93;1.48;;;;;;;14.15;53.04;98797.56;10385872;28;20053;-68
2023/03/24 11:35:13;;;;;;;5.40;1.90;;;;;;;14.32;53.00;98806.50;10405201;28;20056;-68
2023/03/24 11:40:23;;;;;;;5.70;2.03;;;;;;;14.39;51.60;98790.00;10386184;28;20064;-68
2023/03/24 11:45:38;;;;;;;6.75;1.52;;;;;;;14.34;50.36;98776.47;10383008;28;20041;-68
2023/03/24 11:50:41;;;;;;;3.60;1.30;;;;;;;14.34;50.35;98779.09;10383660;28;20428;-68
2023/03/24 11:55:58;;;;;;;4.40;1.58;;;;;;;14.40;48.27;98778.53;10392903;28;20077;-67
2023/03/24 12:01:08;;;;;;;5.85;1.70;;;;;;;14.22;48.02;98779.41;10391102;28;20083;-68
2023/03/24 12:06:10;;;;;;;;;;;;;;;14.11;48.72;98784.81;10407035;28;20052;-68
2023/03/24 12:11:49;;;;;;;6.80;1.60;;;;;;;14.31;46.67;98779.38;10390825;28;19925;-68
2023/03/24 12:17:02;;;;;;;5.20;1.52;;;;;;;14.53;46.45;98792.22;10389225;28;20061;-68
2023/03/24 12:22:43;;;;;;;4.43;1.52;;;;;;;14.82;46.20;98780.75;10389620;28;20057;-68
2023/03/24 12:27:44;;;;;;;8.63;2.27;;;;;;;14.73;45.79;98784.25;10381089;28;20127;-68
2023/03/24 12:33:03;;;;;;;4.65;1.58;;;;;;;14.90;44.59;98783.50;10386746;28;20053;-67
2023/03/24 12:38:30;;;;;;;5.18;1.73;;;;;;;15.26;43.66;98772.03;10384489;28;20235;-68
2023/03/24 12:43:42;;;;;;;6.28;1.90;;;;;;;15.43;43.71;98779.94;10391414;28;20053;-68
2023/03/24 12:48:53;;;;;;;7.90;1.95;;;;;;;15.48;41.82;98776.88;10389922;28;20045;-68
2023/03/24 12:54:06;;;;;;;5.82;1.65;;;;;;;15.81;40.88;98764.84;10388736;28;20743;-68
2023/03/24 12:59:38;;;;;;;7.72;1.92;;;;;;;15.79;41.48;98749.19;10397188;28;20060;-68
2023/03/24 13:04:44;;;;;;;9.70;1.92;;;;;;;15.75;42.66;98771.56;10389098;28;20498;-67
2023/03/24 13:09:55;;;;;;;5.05;1.58;;;;;;;15.74;42.21;98780.44;10383642;28;20434;-68
2023/03/24 13:15:13;;;;;;;7.57;1.98;;;;;;;15.33;42.09;98767.81;10386441;28;20045;-68
2023/03/24 13:20:31;;;;;;;6.63;1.83;;;;;;;15.37;41.57;98761.25;10403253;28;20560;-68
2023/03/24 13:26:04;;;;;;;8.40;2.00;;;;;;;15.19;41.95;98760.44;10387163;28;20057;-68
2023/03/24 13:31:08;;;;;;;6.35;1.98;;;;;;;15.09;42.74;98751.75;10394256;28;20041;-68
2023/03/24 13:36:34;;;;;;;6.28;1.70;;;;;;;15.26;43.35;98753.59;10387138;28;20042;-68
2023/03/24 13:41:38;;;;;;;5.38;1.83;;;;;;;15.33;42.17;98752.00;10385212;28;20502;-68
2023/03/24 13:47:04;;;;;;;5.47;1.83;;;;;;;15.08;40.46;98752.75;10389035;28;20424;-68
2023/03/24 13:52:27;;;;;;;7.38;1.75;;;;;;;15.34;39.24;98757.16;10401768;28;20057;-68
2023/03/24 13:57:30;;;;;;;5.38;1.90;;;;;;;15.53;39.58;98753.53;10389569;28;20370;-68
2023/03/24 14:02:48;;;;;;;5.57;2.00;;;;;;;15.76;37.34;98733.66;10404494;28;20049;-68
2023/03/24 14:08:15;;;;;;;4.57;1.60;;;;;;;16.01;35.42;98737.28;10393317;28;20041;-68
2023/03/24 14:13:20;;;;;;;6.10;1.70;;;;;;;16.15;36.45;98734.94;10371941;28;20053;-68
2023/03/24 14:18:23;;;;;;;7.45;1.63;;;;;;;16.17;35.89;98732.97;10387552;28;20255;-68
2023/03/24 14:23:38;;;;;;;6.63;1.50;;;;;;;15.91;35.64;98726.84;10403038;28;20505;-68
2023/03/24 14:28:48;;;;;;;6.40;1.50;;;;;;;15.67;36.77;98734.59;10390715;28;20431;-68
2023/03/24 14:34:00;;;;;;;7.32;1.90;;;;;;;15.67;35.74;98718.78;10371413;28;20166;-68
2023/03/24 14:39:13;;;;;;;5.05;1.70;;;;;;;15.80;35.14;98706.00;10389760;28;20127;-68
2023/03/24 14:44:34;;;;;;;5.22;1.63;;;;;;;16.18;35.97;98705.56;10384117;28;20057;-68
2023/03/24 14:49:42;;;;;;;6.00;1.70;;;;;;;16.24;35.00;98701.50;10382531;28;20066;-68
2023/03/24 14:54:52;;;;;;;7.53;1.80;;;;;;;16.02;34.80;98705.47;10383005;28;20405;-68
2023/03/24 15:00:13;;;;;;;5.03;1.50;;;;;;;16.16;34.53;98691.72;10387369;28;20045;-68
2023/03/24 15:05:31;;;;;;;7.28;1.58;;;;;;;16.29;34.08;98688.66;10382711;28;20187;-68
2023/03/24 15:11:04;;;;;;;5.55;1.70;;;;;;;16.10;34.54;98691.53;10377774;28;20101;-67
2023/03/24 15:16:17;;;;;;;6.50;1.60;;;;;;;15.84;34.96;98698.59;10380291;28;20046;-68
2023/03/24 15:21:27;;;;;;;6.32;1.52;;;;;;;16.03;34.03;98696.59;10383171;28;20053;-68
2023/03/24 15:26:30;;;;;;;5.15;1.42;;;;;;;15.99;35.16;98690.00;10376914;28;20048;-68
2023/03/24 15:31:32;;;;;;;4.47;1.60;;;;;;;15.81;34.85;98696.28;10385341;28;20128;-68
2023/03/24 15:36:39;;;;;;;5.15;1.67;;;;;;;15.74;34.11;98685.53;10382794;28;20045;-67
2023/03/24 15:41:41;;;;;;;6.03;1.83;;;;;;;15.84;34.24;98682.78;10385120;28;20045;-67
2023/03/24 15:46:43;;;;;;;6.25;1.83;;;;;;;15.58;34.49;98689.84;10391164;28;20410;-67
2023/03/24 15:51:55;;;;;;;4.43;1.75;;;;;;;15.33;34.42;98688.78;10392876;28;20157;-68
2023/03/24 15:57:01;;;;;;;4.63;1.40;;;;;;;15.23;34.74;98686.25;10388044;28;20045;-68
2023/03/24 16:02:09;;;;;;;7.60;1.60;;;;;;;15.00;35.49;98700.00;10390261;28;20513;-68
2023/03/24 16:07:31;;;;;;;6.55;1.83;;;;;;;14.98;36.01;98701.97;10388139;28;20544;-69
2023/03/24 16:12:35;;;;;;;7.90;1.90;;;;;;;14.99;37.44;98695.69;10388600;28;20053;-68
2023/03/24 16:17:36;;;;;;;5.93;1.55;;;;;;;14.96;37.42;98706.56;10391918;28;20049;-68
2023/03/24 16:22:38;;;;;;;5.70;1.70;;;;;;;14.89;37.71;98695.78;10387530;28;20061;-67
2023/03/24 16:27:40;;;;;;;7.38;1.95;;;;;;;14.97;38.23;98695.88;10394822;28;20078;-67
2023/03/24 16:32:44;;;;;;;5.80;1.63;;;;;;;15.02;38.76;98706.75;10387841;28;20469;-67
2023/03/24 16:37:46;;;;;;;5.95;1.83;;;;;;;14.91;39.33;98701.72;10400246;28;20092;-67
2023/03/24 16:42:48;;;;;;;5.43;1.60;;;;;;;14.74;39.70;98706.94;10389197;28;20063;-67
2023/03/24 16:47:50;;;;;;;5.45;1.70;;;;;;;14.38;40.38;98719.16;10390979;28;20072;-66
2023/03/24 16:52:52;;;;;;;7.47;1.77;;;;;;;14.06;39.88;98727.44;10386715;28;20045;-67
2023/03/24 16:57:54;;;;;;;4.72;1.60;;;;;;;13.90;40.28;98727.19;10402507;28;20083;-67
2023/03/24 17:02:58;;;;;;;6.60;1.80;;;;;;;13.76;40.30;98727.59;10399967;28;20528;-67
2023/03/24 17:08:00;;;;;;;3.75;1.50;;;;;;;13.65;40.70;98740.91;10386761;28;20040;-67
2023/03/24 17:13:02;;;;;;;7.45;1.60;;;;;;;13.52;40.54;98754.31;10393140;28;20045;-66
2023/03/24 17:18:07;;;;;;;6.97;1.77;;;;;;;13.60;42.92;98774.63;10393139;28;20097;-67
2023/03/24 17:23:11;;;;;;;8.25;1.70;;;;;;;13.20;44.13;98781.75;10424778;28;20742;-66
2023/03/24 17:28:15;;;;;;;6.72;1.70;;;;;;;12.89;45.73;98792.34;10392844;28;20046;-66
2023/03/24 17:33:17;;;;;;;5.13;1.70;;;;;;;12.69;46.65;98782.75;10386140;28;20059;-66
2023/03/24 17:38:19;;;;;;;6.82;1.73;;;;;;;12.44;47.31;98790.22;10384760;28;20057;-67
2023/03/24 17:43:21;;;;;;;11.95;5.32;;;;;;;12.25;47.79;98785.69;10398648;28;20056;-67
2023/03/24 17:48:23;;;;;;;8.98;3.58;;;;;;;12.10;48.41;98782.56;10401906;28;20045;-67
2023/03/24 17:53:25;;;;;;;8.80;3.00;;;;;;;12.05;48.88;98781.28;10392441;28;20052;-68
2023/03/24 17:58:28;;;;;;;7.53;2.55;;;;;;;11.94;49.39;98791.84;10391164;28;20049;-66
2023/03/24 18:03:30;;;;;;;7.03;1.80;;;;;;;11.95;49.77;98803.97;10373888;28;20059;-63
2023/03/24 18:08:32;;;;;;;7.40;1.90;;;;;;;11.93;49.93;98800.63;10373401;28;20049;-61
2023/03/24 18:13:35;;;;;;;8.77;2.00;;;;;;;11.94;50.31;98812.78;10381381;28;20044;-61
2023/03/24 18:18:37;;;;;;;7.15;1.88;;;;;;;12.03;50.29;98818.09;10387422;28;20439;-63
2023/03/24 18:23:39;;;;;;;7.93;2.53;;;;;;;12.09;51.42;98842.94;10395289;28;20045;-63
2023/03/24 18:28:42;;;;;;;15.23;8.60;;;;;;;12.01;52.49;98892.53;10395304;28;20050;-60
2023/03/24 18:33:44;;;;;;;5.03;1.42;;;;;;;11.68;51.80;98926.72;10391004;28;20583;-60
2023/03/24 18:38:47;;;;;;;3.78;1.30;;;;;;;11.12;54.82;98955.59;10387928;28;20056;-62
2023/03/24 18:43:49;;;;;;;5.65;1.52;;;;;;;10.66;57.44;98995.78;10385145;28;20067;-63
2023/03/24 18:48:52;;;;;;;3.63;1.40;;;;;;;10.60;58.02;98946.56;10387042;28;20041;-60
2023/03/24 18:53:53;;;;;;;4.55;2.17;;;;;;;10.43;58.37;98929.53;10389160;28;20172;-61
2023/03/24 18:58:55;;;;;;;3.33;1.40;;;;;;;10.28;58.86;98905.38;10374681;28;20045;-62
2023/03/24 19:03:57;;;;;;;3.83;1.30;;;;;;;10.02;59.59;98892.56;10388818;28;20057;-63
2023/03/24 19:08:59;;;;;;;5.00;1.27;;;;;;;9.69;60.65;98885.41;10385651;28;20060;-62
2023/03/24 19:14:01;;;;;;;5.20;1.20;;;;;;;9.42;60.84;98893.44;10370672;28;20049;-63
2023/03/24 19:19:04;;;;;;;3.65;1.33;;;;;;;9.29;61.30;98895.25;10390287;28;20092;-62
2023/03/24 19:24:06;;;;;;;3.53;1.40;;;;;;;9.37;61.61;98894.69;10393099;28;20293;-63
2023/03/24 19:29:08;;;;;;;4.30;1.70;;;;;;;9.24;61.38;98893.91;10392483;28;20087;-64
2023/03/24 19:34:09;;;;;;;3.65;1.60;;;;;;;9.39;62.24;98905.88;10393480;28;20071;-63
2023/03/24 19:39:14;;;;;;;5.68;2.10;;;;;;;9.57;62.31;98909.78;10391640;28;20402;-63
2023/03/24 19:44:16;;;;;;;7.03;2.70;;;;;;;9.62;61.68;98911.13;10399301;28;20049;-63
2023/03/24 19:49:17;;;;;;;7.57;3.13;;;;;;;9.43;62.50;98909.91;10368271;28;20089;-63
2023/03/24 19:54:19;;;;;;;6.00;2.38;;;;;;;9.48;61.90;98906.03;10396045;28;20057;-63
2023/03/24 19:59:22;;;;;;;4.95;2.00;;;;;;;9.61;61.96;98909.44;10392932;28;20073;-62
2023/03/24 20:04:24;;;;;;;5.75;2.65;;;;;;;9.75;62.24;98902.44;10391855;28;20041;-63
2023/03/24 20:09:25;;;;;;;8.48;3.78;;;;;;;9.88;61.32;98900.59;10391290;28;20049;-63
2023/03/24 20:14:29;;;;;;;9.68;3.40;;;;;;;9.94;60.87;98900.97;10389766;28;20482;-63
2023/03/24 20:19:31;;;;;;;6.40;2.50;;;;;;;9.34;62.81;98915.81;10393256;28;20056;-61
2023/03/24 20:24:36;;;;;;;5.63;2.28;;;;;;;9.16;63.53;98894.44;10390437;28;20049;-61
2023/03/24 20:29:38;;;;;;;5.90;2.00;;;;;;;9.34;63.71;98929.66;10390821;28;20053;-63
2023/03/24 20:34:41;;;;;;;8.02;2.95;;;;;;;9.60;63.66;98954.78;10396365;28;20041;-61
2023/03/24 20:39:42;;;;;;;7.25;3.33;;;;;;;9.65;63.83;98963.09;10391643;28;20056;-61
2023/03/24 20:44:44;;;;;;;6.88;1.70;;;;;;;9.60;63.43;98960.00;10390463;28;20139;-63
2023/03/24 20:49:46;;;;;;;7.22;2.20;;;;;;;9.71;63.06;98955.81;10392987;28;20078;-63
2023/03/24 20:54:50;;;;;;;4.68;1.40;;;;;;;9.54;62.95;98944.75;10385367;28;20121;-62
2023/03/24 20:59:52;;;;;;;2.65;1.20;;;;;;;9.33;63.55;98946.28;10393499;28;20124;-63
2023/03/24 21:04:55;;;;;;;6.85;1.40;;;;;;;9.34;63.61;98945.31;10399024;28;20631;-63
2023/03/24 21:09:57;;;;;;;6.68;1.33;;;;;;;9.18;64.08;98926.47;10391451;28;20045;-63
2023/03/24 21:15:00;;;;;;;4.50;1.60;;;;;;;9.18;64.02;98931.69;10392676;28;20050;-63
2023/03/24 21:20:07;;;;;;;5.30;1.70;;;;;;;9.25;63.83;98934.72;10389293;28;20053;-63
2023/03/24 21:25:09;;;;;;;3.47;2.13;;;;;;;9.28;63.64;98911.03;10367270;28;20065;-63
2023/03/24 21:30:11;;;;;;;4.35;2.22;;;;;;;9.21;63.60;98917.59;10389380;28;20072;-63
2023/03/24 21:35:14;;;;;;;4.35;1.83;;;;;;;9.17;63.62;98918.75;10389307;28;20051;-63
2023/03/24 21:40:18;;;;;;;5.28;2.15;;;;;;;9.15;64.12;98897.16;10389466;28;20429;-63
2023/03/24 21:45:21;;;;;;;6.90;3.45;;;;;;;9.05;63.93;98903.97;10388017;28;20046;-63
2023/03/24 21:50:25;;;;;;;8.07;3.92;;;;;;;9.01;63.71;98903.34;10388700;28;20049;-63
2023/03/24 21:55:27;;;;;;;12.30;5.32;;;;;;;8.93;63.71;98890.03;10387384;28;20049;-63
2023/03/24 22:00:32;;;;;;;8.90;4.15;;;;;;;8.85;63.55;98887.91;10388744;28;20064;-63
2023/03/24 22:05:37;;;;;;;17.23;6.93;;;;;;;8.78;63.71;98876.25;10391347;28;20147;-63
2023/03/24 22:10:42;;;;;;;5.90;2.10;;;;;;;8.61;63.81;98888.75;10386480;28;20346;-63
2023/03/24 22:15:43;;;;;;;6.00;3.60;;;;;;;8.55;63.95;98883.97;10385988;28;20167;-63
2023/03/24 22:20:54;;;;;;;6.55;3.53;;;;;;;8.46;64.00;98905.47;10390778;28;20055;-63
2023/03/24 22:25:56;;;;;;;3.20;1.70;;;;;;;8.37;64.00;98903.44;10389615;28;20048;-63
2023/03/24 22:31:00;;;;;;;6.88;3.30;;;;;;;8.43;64.02;98911.69;10387409;28;20045;-62
2023/03/24 22:36:03;;;;;;;6.00;2.90;;;;;;;8.59;63.69;98909.72;10387806;28;20053;-62
2023/03/24 22:41:07;;;;;;;10.27;5.18;;;;;;;8.83;63.68;98918.47;10396522;28;20099;-62
2023/03/24 22:46:09;;;;;;;4.03;1.45;;;;;;;8.81;63.11;98929.97;10400593;28;20048;-62
2023/03/24 22:51:15;;;;;;;2.88;0.90;;;;;;;8.76;62.85;98938.09;10385067;28;20103;-62
2023/03/24 22:56:17;;;;;;;3.28;1.10;;;;;;;8.56;63.08;98924.75;10392683;28;20057;-63
2023/03/24 23:01:19;;;;;;;2.13;0.93;;;;;;;8.71;62.60;98914.09;10386018;28;20055;-63
2023/03/24 23:06:20;;;;;;;1.25;0.80;;;;;;;8.78;62.32;98917.13;10385865;28;20040;-62
2023/03/24 23:11:22;;;;;;;1.60;0.82;;;;;;;8.78;62.42;98927.56;10389227;28;20048;-62
2023/03/24 23:16:24;;;;;;;2.45;1.10;;;;;;;8.66;62.55;98933.59;10386806;28;20064;-63
2023/03/24 23:21:26;;;;;;;2.20;1.00;;;;;;;8.61;62.61;98913.06;10387242;28;20674;-62
2023/03/24 23:26:29;;;;;;;2.80;0.80;;;;;;;8.58;62.58;98904.63;10386130;28;20068;-61
2023/03/24 23:31:30;;;;;;;3.22;1.25;;;;;;;8.38;62.71;98908.59;10383838;28;20049;-62
2023/03/24 23:36:33;;;;;;;3.97;1.70;;;;;;;8.37;62.71;98906.91;10378939;28;20053;-62
2023/03/24 23:41:34;;;;;;;3.30;1.42;;;;;;;8.26;62.69;98903.34;10390525;28;20053;-61
2023/03/24 23:46:38;;;;;;;2.33;1.17;;;;;;;8.33;62.44;98931.50;10388025;28;20489;-61